Snow/Ice From: 16-12-2017 16:00 Until: 17-12-2017 16:00 warning for: Snow/Ice Level: Yellow info button

Although rather usual in this region, locally or potentially dangerous phenomena are expected. (such as local winds, summer thunderstorms, rising streams or high waves) Be aware and pay attention to the latest weather updates, especially if you carry out activities exposed to weather or close to a stream or shoreline. 


Meteo18 Weather Cam more information Meteo18 Weather Cam


Thunder radar more information blitzortung!


warning for Snow/Ice more information rain snow radar


Visit our other weather sites:

Template documentation
and downloads

And another site



Weather Underground History page Text

Daily Summary for August 18, 2017 Units:  Metric    English   Both
« Previous Day
Next Day »
Daily Weekly Monthly Yearly Custom
  High: Low: Average:
Temperature: 20.4 °C 16.3 °C 17.9 °C
Dew Point: 17.6 °C 15.4 °C 16.5 °C
Humidity: 96 % 82 % 92 %
Wind Speed: 17.7 km/h 0.0 km/h 4.3 km/h
Wind Gust: 25.7 km/h - -
Wind:- - SW
Pressure: 1020.2 hPa 1017.5 hPa -
Precipitation: 7.1 mm    
Historical Graphs
 
 
Tabular Data for August 18, 2017
Time Temperature Dew Point Pressure Wind Wind Speed Wind Gust Humidity Rainfall Rate (Hourly)
00:02 20.4 °C 17.2 °C 1018.8 hPa WNW 6.4 km/h 9.7 km/h 82 % 0.0 mm
00:07 20.3 °C 17.1 °C 1018.8 hPa West 1.6 km/h 8.0 km/h 82 % 0.0 mm
00:12 20.3 °C 17.1 °C 1018.8 hPa WSW 6.4 km/h 9.7 km/h 82 % 0.0 mm
00:17 20.3 °C 17.1 °C 1018.8 hPa WSW 3.2 km/h 9.7 km/h 82 % 0.0 mm
00:22 20.3 °C 17.3 °C 1018.8 hPa WNW 1.6 km/h 9.7 km/h 83 % 0.0 mm
00:32 20.1 °C 17.1 °C 1018.8 hPa Calm   9.7 km/h 83 % 0.0 mm
00:42 19.9 °C 17.1 °C 1018.8 hPa Calm   6.4 km/h 84 % 0.0 mm
00:47 19.5 °C 16.5 °C 1018.8 hPa East 6.4 km/h 6.4 km/h 83 % 0.0 mm
00:52 19.0 °C 16.4 °C 1018.8 hPa Calm   6.4 km/h 85 % 0.0 mm
00:57 18.7 °C 16.3 °C 1018.8 hPa Calm   6.4 km/h 86 % 0.0 mm
01:02 18.6 °C 16.2 °C 1018.8 hPa Calm   6.4 km/h 86 % 0.0 mm
01:12 18.3 °C 16.1 °C 1018.8 hPa Calm   3.2 km/h 87 % 0.0 mm
01:17 18.1 °C 16.1 °C 1018.8 hPa Calm   3.2 km/h 88 % 0.0 mm
01:22 17.9 °C 15.9 °C 1018.8 hPa Calm   3.2 km/h 88 % 0.0 mm
01:27 17.8 °C 15.8 °C 1018.8 hPa Calm   1.6 km/h 88 % 0.0 mm
01:32 17.7 °C 15.9 °C 1018.8 hPa Calm   1.6 km/h 89 % 0.0 mm
01:37 17.6 °C 15.8 °C 1018.8 hPa Calm   1.6 km/h 89 % 0.0 mm
01:42 17.6 °C 15.9 °C 1018.8 hPa Calm   1.6 km/h 90 % 0.0 mm
01:52 17.6 °C 15.9 °C 1018.8 hPa Calm     90 % 0.0 mm
01:57 17.6 °C 15.9 °C 1018.5 hPa Calm     90 % 0.0 mm
02:02 17.5 °C 15.8 °C 1018.5 hPa Calm     90 % 0.0 mm
02:07 17.5 °C 15.8 °C 1018.5 hPa Calm     90 % 0.0 mm
02:12 17.4 °C 15.7 °C 1018.5 hPa Calm     90 % 0.0 mm
02:17 17.4 °C 15.9 °C 1018.8 hPa Calm     91 % 0.0 mm
02:22 17.4 °C 15.9 °C 1018.8 hPa Calm     91 % 0.0 mm
02:27 17.5 °C 16.0 °C 1018.8 hPa Calm     91 % 0.0 mm
02:32 17.6 °C 16.3 °C 1018.8 hPa Calm     92 % 0.0 mm
02:37 17.6 °C 16.1 °C 1018.8 hPa SSW 1.6 km/h   91 % 0.0 mm
02:42 17.7 °C 16.2 °C 1018.5 hPa Calm   1.6 km/h 91 % 0.0 mm
02:47 17.7 °C 16.2 °C 1018.8 hPa Calm   1.6 km/h 91 % 0.0 mm
02:52 17.6 °C 16.1 °C 1018.5 hPa Calm   3.2 km/h 91 % 0.0 mm
02:57 17.6 °C 16.1 °C 1018.5 hPa SSW 1.6 km/h 3.2 km/h 91 % 0.0 mm
03:02 17.6 °C 16.3 °C 1018.5 hPa Calm   3.2 km/h 92 % 0.0 mm
03:07 17.6 °C 16.3 °C 1018.5 hPa SSW 1.6 km/h 1.6 km/h 92 % 0.0 mm
03:12 17.6 °C 16.3 °C 1018.5 hPa SSW 1.6 km/h 3.2 km/h 92 % 0.0 mm
03:17 17.6 °C 16.3 °C 1018.5 hPa Calm   3.2 km/h 92 % 0.0 mm
03:22 17.6 °C 16.3 °C 1018.5 hPa Calm   3.2 km/h 92 % 0.0 mm
03:27 17.6 °C 16.3 °C 1018.5 hPa Calm   1.6 km/h 92 % 0.0 mm
03:32 17.7 °C 16.4 °C 1018.5 hPa Calm   1.6 km/h 92 % 0.0 mm
03:37 17.7 °C 16.4 °C 1018.2 hPa Calm     92 % 0.0 mm
03:42 17.7 °C 16.2 °C 1018.2 hPa Calm     91 % 0.0 mm
03:47 17.7 °C 16.4 °C 1018.2 hPa SSW 1.6 km/h   92 % 0.0 mm
03:52 17.6 °C 16.3 °C 1018.2 hPa SSW 1.6 km/h 3.2 km/h 92 % 0.0 mm
03:57 17.6 °C 16.3 °C 1018.2 hPa SSW 1.6 km/h 3.2 km/h 92 % 0.0 mm
04:02 17.5 °C 16.2 °C 1018.5 hPa Calm   4.8 km/h 92 % 0.0 mm
04:07 17.5 °C 16.2 °C 1018.5 hPa SW 1.6 km/h 4.8 km/h 92 % 0.0 mm
04:12 17.5 °C 16.2 °C 1018.5 hPa SW 1.6 km/h 4.8 km/h 92 % 0.0 mm
04:17 17.5 °C 16.2 °C 1018.5 hPa SSW 1.6 km/h 4.8 km/h 92 % 0.0 mm
04:22 17.6 °C 16.3 °C 1018.5 hPa SSW 1.6 km/h 4.8 km/h 92 % 0.0 mm
04:27 17.5 °C 16.2 °C 1018.5 hPa Calm   4.8 km/h 92 % 0.0 mm
04:32 17.4 °C 16.1 °C 1018.5 hPa SSW 1.6 km/h 4.8 km/h 92 % 0.0 mm
04:37 17.4 °C 16.1 °C 1018.5 hPa SW 1.6 km/h 3.2 km/h 92 % 0.0 mm
04:42 17.4 °C 16.3 °C 1018.5 hPa Calm   3.2 km/h 93 % 0.0 mm
04:47 17.4 °C 16.3 °C 1018.2 hPa Calm   3.2 km/h 93 % 0.0 mm
04:52 17.3 °C 16.2 °C 1018.2 hPa Calm   3.2 km/h 93 % 0.0 mm
05:02 17.2 °C 16.1 °C 1018.2 hPa Calm   3.2 km/h 93 % 0.0 mm
05:12 17.1 °C 16.0 °C 1018.2 hPa Calm   3.2 km/h 93 % 0.0 mm
05:22 17.1 °C 16.0 °C 1017.8 hPa Calm   1.6 km/h 93 % 0.0 mm
05:27 17.1 °C 16.1 °C 1017.8 hPa Calm   3.2 km/h 94 % 0.0 mm
05:32 17.1 °C 16.1 °C 1017.8 hPa Calm   3.2 km/h 94 % 0.0 mm
05:42 17.2 °C 16.2 °C 1017.8 hPa SSE 1.6 km/h 3.2 km/h 94 % 0.0 mm
05:47 17.1 °C 16.1 °C 1017.8 hPa Calm   1.6 km/h 94 % 0.0 mm
05:52 17.1 °C 16.1 °C 1017.8 hPa Calm   1.6 km/h 94 % 0.0 mm
05:57 17.1 °C 16.1 °C 1017.8 hPa Calm   3.2 km/h 94 % 0.0 mm
06:02 17.0 °C 16.0 °C 1017.8 hPa Calm   3.2 km/h 94 % 0.0 mm
06:07 17.0 °C 16.0 °C 1017.8 hPa SE 1.6 km/h 1.6 km/h 94 % 0.0 mm
06:12 17.0 °C 16.0 °C 1017.8 hPa SE 1.6 km/h 1.6 km/h 94 % 0.0 mm
06:17 17.0 °C 16.0 °C 1017.8 hPa Calm   1.6 km/h 94 % 0.0 mm
06:22 16.9 °C 15.9 °C 1017.8 hPa Calm   1.6 km/h 94 % 0.0 mm
06:32 16.8 °C 15.8 °C 1017.8 hPa Calm   3.2 km/h 94 % 0.0 mm
06:37 16.8 °C 15.8 °C 1017.8 hPa Calm   1.6 km/h 94 % 0.0 mm
06:42 16.7 °C 15.7 °C 1017.8 hPa Calm   1.6 km/h 94 % 0.0 mm
06:47 16.8 °C 16.0 °C 1017.8 hPa SW 1.6 km/h 3.2 km/h 95 % 0.0 mm
06:52 16.8 °C 16.0 °C 1017.8 hPa SW 1.6 km/h 3.2 km/h 95 % 0.0 mm
06:57 16.7 °C 15.9 °C 1017.8 hPa Calm   3.2 km/h 95 % 0.0 mm
07:02 16.6 °C 15.8 °C 1017.8 hPa SW 3.2 km/h 3.2 km/h 95 % 0.0 mm
07:12 16.7 °C 15.9 °C 1017.8 hPa SSW 1.6 km/h 4.8 km/h 95 % 0.0 mm
07:17 16.7 °C 15.9 °C 1017.8 hPa Calm   4.8 km/h 95 % 0.0 mm
07:22 16.7 °C 15.9 °C 1017.8 hPa Calm   4.8 km/h 95 % 0.0 mm
07:32 16.9 °C 16.3 °C 1017.8 hPa Calm   1.6 km/h 96 % 0.0 mm
07:42 17.1 °C 16.3 °C 1018.2 hPa Calm   6.4 km/h 95 % 0.0 mm
07:47 17.1 °C 16.5 °C 1017.8 hPa Calm   4.8 km/h 96 % 0.0 mm
07:52 17.2 °C 16.6 °C 1017.8 hPa SW 3.2 km/h 4.8 km/h 96 % 0.0 mm
08:02 17.4 °C 16.8 °C 1017.8 hPa SSW 3.2 km/h 6.4 km/h 96 % 0.0 mm
08:12 17.7 °C 16.9 °C 1017.8 hPa WSW 9.7 km/h 9.7 km/h 95 % 0.0 mm
08:17 17.8 °C 17.0 °C 1017.8 hPa WSW 9.7 km/h 9.7 km/h 95 % 0.0 mm
08:22 17.9 °C 17.1 °C 1017.8 hPa WSW 6.4 km/h 12.9 km/h 95 % 0.0 mm
08:32 18.0 °C 17.0 °C 1017.8 hPa SW 1.6 km/h 12.9 km/h 94 % 0.0 mm
08:42 18.2 °C 17.2 °C 1017.8 hPa SW 3.2 km/h 11.3 km/h 94 % 0.0 mm
08:52 18.3 °C 17.1 °C 1017.8 hPa SW 6.4 km/h 9.7 km/h 93 % 0.0 mm
08:57 18.4 °C 17.2 °C 1017.8 hPa West 4.8 km/h 11.3 km/h 93 % 0.0 mm
09:02 18.4 °C 17.2 °C 1017.8 hPa SSE 9.7 km/h 11.3 km/h 93 % 0.0 mm
09:12 18.4 °C 17.2 °C 1017.8 hPa WSW 3.2 km/h 11.3 km/h 93 % 0.0 mm
09:17 18.4 °C 17.1 °C 1017.8 hPa West 1.6 km/h 11.3 km/h 92 % 0.0 mm
09:22 18.5 °C 17.3 °C 1017.5 hPa WSW 3.2 km/h 11.3 km/h 93 % 0.0 mm
09:32 18.6 °C 17.3 °C 1017.5 hPa WSW 4.8 km/h 12.9 km/h 92 % 0.0 mm
09:42 18.7 °C 17.4 °C 1017.5 hPa SW 6.4 km/h 12.9 km/h 92 % 0.0 mm
09:52 18.8 °C 17.5 °C 1017.5 hPa SW 4.8 km/h 11.3 km/h 92 % 0.0 mm
09:57 18.8 °C 17.5 °C 1017.5 hPa SW 9.7 km/h 9.7 km/h 92 % 0.0 mm
10:02 18.9 °C 17.6 °C 1017.8 hPa WSW 3.2 km/h 11.3 km/h 92 % 0.0 mm
10:12 19.1 °C 17.6 °C 1017.8 hPa SW 12.9 km/h 12.9 km/h 91 % 0.0 mm
10:17 19.1 °C 17.4 °C 1017.8 hPa SW 4.8 km/h 11.3 km/h 90 % 0.0 mm
10:22 19.1 °C 17.4 °C 1017.8 hPa South 1.6 km/h 11.3 km/h 90 % 0.0 mm
10:32 19.2 °C 17.5 °C 1017.8 hPa SW 8.0 km/h 14.5 km/h 90 % 0.0 mm
10:37 19.2 °C 17.3 °C 1017.8 hPa WSW 4.8 km/h 14.5 km/h 89 % 0.0 mm
10:42 19.2 °C 17.3 °C 1017.8 hPa SW 6.4 km/h 14.5 km/h 89 % 0.0 mm
10:47 19.2 °C 17.3 °C 1017.8 hPa West 1.6 km/h 11.3 km/h 89 % 0.0 mm
10:52 19.2 °C 17.3 °C 1017.8 hPa WSW 8.0 km/h 11.3 km/h 89 % 0.0 mm
11:02 19.3 °C 17.4 °C 1017.8 hPa WNW 4.8 km/h 16.1 km/h 89 % 0.0 mm
11:12 19.3 °C 17.4 °C 1017.8 hPa WSW 8.0 km/h 16.1 km/h 89 % 0.0 mm
11:22 18.9 °C 17.4 °C 1017.8 hPa West 4.8 km/h 17.7 km/h 91 % 0.0 mm
11:27 18.8 °C 17.3 °C 1017.8 hPa WSW 6.4 km/h 17.7 km/h 91 % 0.0 mm
11:32 18.7 °C 17.4 °C 1018.2 hPa SW 4.8 km/h 17.7 km/h 92 % 0.0 mm
11:37 18.7 °C 17.4 °C 1018.2 hPa WSW 14.5 km/h 16.1 km/h 92 % 0.0 mm
11:42 18.6 °C 17.3 °C 1018.2 hPa WSW 11.3 km/h 16.1 km/h 92 % 0.0 mm
11:52 18.6 °C 17.4 °C 1018.2 hPa WSW 6.4 km/h 19.3 km/h 93 % 0.3 mm
12:02 18.5 °C 17.3 °C 1017.8 hPa SW 6.4 km/h 16.1 km/h 93 % 0.5 mm
12:12 18.5 °C 17.5 °C 1017.8 hPa SW 1.6 km/h 14.5 km/h 94 % 0.8 mm
12:17 18.5 °C 17.5 °C 1017.8 hPa SW 8.0 km/h 11.3 km/h 94 % 0.8 mm
12:22 18.5 °C 17.5 °C 1018.2 hPa WSW 8.0 km/h 11.3 km/h 94 % 0.8 mm
12:32 18.4 °C 17.4 °C 1018.2 hPa WSW 4.8 km/h 12.9 km/h 94 % 0.8 mm
12:42 18.4 °C 17.4 °C 1017.8 hPa WSW 4.8 km/h 12.9 km/h 94 % 0.8 mm
12:47 18.4 °C 17.4 °C 1017.8 hPa WSW 4.8 km/h 11.3 km/h 94 % 0.5 mm
12:52 18.4 °C 17.4 °C 1017.8 hPa WSW 3.2 km/h 11.3 km/h 94 % 0.5 mm
12:57 18.4 °C 17.4 °C 1017.8 hPa WNW 1.6 km/h 9.7 km/h 94 % 0.5 mm
13:02 18.3 °C 17.1 °C 1017.8 hPa WNW 9.7 km/h 9.7 km/h 93 % 0.5 mm
13:12 18.2 °C 16.9 °C 1017.8 hPa SW 9.7 km/h 11.3 km/h 92 % 0.5 mm
13:17 18.1 °C 16.4 °C 1017.8 hPa West 9.7 km/h 20.9 km/h 90 % 0.8 mm
13:22 18.0 °C 16.3 °C 1017.8 hPa WSW 6.4 km/h 20.9 km/h 90 % 0.8 mm
13:27 17.9 °C 16.4 °C 1017.8 hPa NNW 6.4 km/h 16.1 km/h 91 % 1.0 mm
13:32 17.8 °C 16.3 °C 1017.8 hPa SW 4.8 km/h 16.1 km/h 91 % 1.0 mm
13:42 17.7 °C 16.4 °C 1018.2 hPa SW 6.4 km/h 14.5 km/h 92 % 1.8 mm
13:52 17.6 °C 16.3 °C 1018.5 hPa SW 11.3 km/h 14.5 km/h 92 % 1.5 mm
14:02 17.4 °C 16.3 °C 1018.5 hPa SSW 4.8 km/h 14.5 km/h 93 % 1.5 mm
14:07 17.4 °C 16.3 °C 1018.5 hPa WSW 4.8 km/h 16.1 km/h 93 % 1.5 mm
14:12 17.4 °C 16.3 °C 1018.5 hPa West 4.8 km/h 16.1 km/h 93 % 1.8 mm
14:17 17.4 °C 16.4 °C 1018.2 hPa SSW 3.2 km/h 16.1 km/h 94 % 1.8 mm
14:22 17.5 °C 16.5 °C 1018.5 hPa WSW 8.0 km/h 9.7 km/h 94 % 1.8 mm
14:32 17.4 °C 16.4 °C 1018.5 hPa SW 6.4 km/h 16.1 km/h 94 % 1.5 mm
14:42 17.4 °C 16.4 °C 1018.5 hPa SW 6.4 km/h 16.1 km/h 94 % 1.5 mm
14:47 17.4 °C 16.4 °C 1018.8 hPa WSW 4.8 km/h 17.7 km/h 94 % 1.5 mm
14:52 17.4 °C 16.4 °C 1018.5 hPa West 8.0 km/h 17.7 km/h 94 % 1.5 mm
14:57 17.5 °C 16.5 °C 1018.5 hPa WSW 9.7 km/h 16.1 km/h 94 % 1.5 mm
15:02 17.5 °C 16.5 °C 1018.8 hPa WSW 1.6 km/h 16.1 km/h 94 % 1.5 mm
15:07 17.5 °C 16.5 °C 1018.5 hPa SW 1.6 km/h 11.3 km/h 94 % 1.3 mm
15:12 17.5 °C 16.5 °C 1018.2 hPa SW 4.8 km/h 11.3 km/h 94 % 1.3 mm
15:17 17.5 °C 16.5 °C 1018.2 hPa Calm   11.3 km/h 94 % 1.3 mm
15:22 17.5 °C 16.7 °C 1018.2 hPa WSW 11.3 km/h 11.3 km/h 95 % 1.0 mm
15:27 17.5 °C 16.7 °C 1018.5 hPa SW 6.4 km/h 11.3 km/h 95 % 0.8 mm
15:32 17.5 °C 16.7 °C 1018.5 hPa SW 6.4 km/h 11.3 km/h 95 % 1.0 mm
15:37 17.6 °C 16.8 °C 1018.5 hPa WSW 8.0 km/h 12.9 km/h 95 % 0.8 mm
15:42 17.6 °C 16.8 °C 1018.2 hPa SW 6.4 km/h 12.9 km/h 95 % 0.8 mm
15:47 17.6 °C 16.8 °C 1018.2 hPa SSW 4.8 km/h 11.3 km/h 95 % 0.5 mm
15:52 17.7 °C 16.9 °C 1018.2 hPa WNW 3.2 km/h 11.3 km/h 95 % 0.5 mm
15:57 17.8 °C 17.0 °C 1017.8 hPa SW 4.8 km/h 11.3 km/h 95 % 0.5 mm
16:02 18.0 °C 17.2 °C 1018.5 hPa West 4.8 km/h 11.3 km/h 95 % 0.5 mm
16:12 18.0 °C 17.0 °C 1018.5 hPa SW 4.8 km/h 17.7 km/h 94 % 0.3 mm
16:17 18.1 °C 17.1 °C 1018.5 hPa SW 6.4 km/h 17.7 km/h 94 % 0.3 mm
16:22 18.2 °C 17.2 °C 1018.2 hPa SW 11.3 km/h 17.7 km/h 94 % 0.3 mm
16:32 18.3 °C 17.3 °C 1018.2 hPa SSW 17.7 km/h 17.7 km/h 94 % 0.0 mm
16:37 18.6 °C 17.4 °C 1018.2 hPa WSW 9.7 km/h 19.3 km/h 93 % 0.0 mm
16:42 18.8 °C 17.6 °C 1018.2 hPa West 11.3 km/h 19.3 km/h 93 % 0.0 mm
16:52 18.8 °C 17.1 °C 1018.2 hPa SW 4.8 km/h 19.3 km/h 90 % 0.0 mm
16:57 19.2 °C 17.3 °C 1018.2 hPa WSW 16.1 km/h 19.3 km/h 89 % 0.0 mm
17:02 19.4 °C 17.4 °C 1018.2 hPa SW 8.0 km/h 22.5 km/h 88 % 0.0 mm
17:07 19.5 °C 17.3 °C 1018.2 hPa WSW 12.9 km/h 25.7 km/h 87 % 0.0 mm
17:12 19.7 °C 17.5 °C 1018.2 hPa WSW 9.7 km/h 25.7 km/h 87 % 0.0 mm
17:17 19.9 °C 17.5 °C 1018.2 hPa SW 4.8 km/h 22.5 km/h 86 % 0.0 mm
17:22 19.8 °C 17.4 °C 1018.2 hPa WSW 8.0 km/h 22.5 km/h 86 % 0.0 mm
17:27 19.7 °C 17.3 °C 1017.8 hPa SW 12.9 km/h 19.3 km/h 86 % 0.0 mm
17:32 19.6 °C 17.0 °C 1017.8 hPa WSW 12.9 km/h 19.3 km/h 85 % 0.0 mm
17:37 19.7 °C 17.1 °C 1017.8 hPa West 8.0 km/h 19.3 km/h 85 % 0.0 mm
17:42 19.7 °C 17.1 °C 1017.8 hPa WNW 3.2 km/h 19.3 km/h 85 % 0.0 mm
17:47 19.8 °C 16.8 °C 1017.8 hPa SSW 8.0 km/h 19.3 km/h 83 % 0.0 mm
17:52 19.8 °C 17.2 °C 1018.2 hPa SSW 16.1 km/h 19.3 km/h 85 % 0.3 mm
17:57 19.7 °C 17.1 °C 1018.2 hPa WSW 8.0 km/h 22.5 km/h 85 % 0.3 mm
18:02 19.6 °C 17.2 °C 1018.2 hPa WSW 9.7 km/h 22.5 km/h 86 % 0.3 mm
18:07 19.3 °C 16.9 °C 1018.2 hPa WSW 8.0 km/h 22.5 km/h 86 % 0.3 mm
18:12 19.2 °C 17.2 °C 1018.2 hPa WSW 4.8 km/h 16.1 km/h 88 % 0.3 mm
18:17 19.1 °C 17.1 °C 1018.2 hPa WSW 3.2 km/h 16.1 km/h 88 % 0.3 mm
18:27 19.1 °C 17.1 °C 1018.2 hPa WSW 1.6 km/h 16.1 km/h 88 % 0.3 mm
18:32 19.1 °C 17.1 °C 1018.5 hPa NW 6.4 km/h 9.7 km/h 88 % 0.3 mm
18:42 17.9 °C 16.1 °C 1018.5 hPa WSW 4.8 km/h 16.1 km/h 89 % 0.3 mm
18:52 17.4 °C 15.9 °C 1018.2 hPa ESE 3.2 km/h 20.9 km/h 91 % 2.3 mm
19:02 17.1 °C 15.6 °C 1018.5 hPa SSW 4.8 km/h 17.7 km/h 91 % 2.3 mm
19:07 17.1 °C 15.4 °C 1018.5 hPa SW 4.8 km/h 6.4 km/h 90 % 2.3 mm
19:12 17.1 °C 15.4 °C 1018.8 hPa SW 8.0 km/h 9.7 km/h 90 % 2.3 mm
19:17 17.2 °C 15.4 °C 1018.8 hPa West 3.2 km/h 11.3 km/h 89 % 2.3 mm
19:22 17.3 °C 15.6 °C 1018.5 hPa SSW 6.4 km/h 12.9 km/h 90 % 2.3 mm
19:32 17.3 °C 15.6 °C 1018.8 hPa SW 12.9 km/h 12.9 km/h 90 % 2.3 mm
19:37 17.3 °C 15.6 °C 1018.8 hPa WSW 3.2 km/h 12.9 km/h 90 % 0.5 mm
19:42 17.3 °C 15.8 °C 1018.8 hPa WSW 8.0 km/h 14.5 km/h 91 % 0.0 mm
19:52 17.2 °C 15.7 °C 1018.8 hPa WSW 9.7 km/h 16.1 km/h 91 % 0.0 mm
19:57 17.2 °C 15.7 °C 1018.8 hPa SW 6.4 km/h 16.1 km/h 91 % 0.0 mm
20:02 17.2 °C 15.7 °C 1018.8 hPa WSW 9.7 km/h 16.1 km/h 91 % 0.0 mm
20:07 17.2 °C 15.7 °C 1018.8 hPa SW 6.4 km/h 14.5 km/h 91 % 0.0 mm
20:12 17.2 °C 15.7 °C 1018.8 hPa WSW 6.4 km/h 14.5 km/h 91 % 0.0 mm
20:17 17.2 °C 15.7 °C 1018.8 hPa WSW 4.8 km/h 12.9 km/h 91 % 0.0 mm
20:22 17.1 °C 15.6 °C 1018.8 hPa SW 6.4 km/h 12.9 km/h 91 % 0.0 mm
20:27 17.1 °C 15.6 °C 1018.8 hPa SW 8.0 km/h 12.9 km/h 91 % 0.0 mm
20:32 17.1 °C 15.6 °C 1018.8 hPa SW 3.2 km/h 12.9 km/h 91 % 0.0 mm
20:37 17.1 °C 15.6 °C 1018.8 hPa SW 4.8 km/h 11.3 km/h 91 % 0.0 mm
20:42 17.1 °C 15.8 °C 1019.2 hPa WSW 4.8 km/h 11.3 km/h 92 % 0.0 mm
20:47 17.0 °C 15.5 °C 1019.2 hPa SW 4.8 km/h 12.9 km/h 91 % 0.0 mm
20:57 16.9 °C 15.6 °C 1019.2 hPa SW 4.8 km/h 12.9 km/h 92 % 0.0 mm
21:02 16.9 °C 15.8 °C 1019.2 hPa SW 3.2 km/h 12.9 km/h 93 % 0.0 mm
21:07 16.9 °C 15.8 °C 1019.2 hPa SW 4.8 km/h 12.9 km/h 93 % 0.0 mm
21:12 16.9 °C 15.8 °C 1019.2 hPa WSW 3.2 km/h 9.7 km/h 93 % 0.0 mm
21:17 16.9 °C 15.8 °C 1019.2 hPa WSW 4.8 km/h 9.7 km/h 93 % 0.0 mm
21:22 16.9 °C 15.8 °C 1019.2 hPa SW 6.4 km/h 9.7 km/h 93 % 0.0 mm
21:27 16.9 °C 15.8 °C 1019.2 hPa WSW 4.8 km/h 9.7 km/h 93 % 0.0 mm
21:32 16.9 °C 15.8 °C 1019.2 hPa SW 4.8 km/h 9.7 km/h 93 % 0.0 mm
21:37 16.9 °C 15.8 °C 1019.2 hPa WSW 4.8 km/h 9.7 km/h 93 % 0.0 mm
21:42 16.8 °C 15.8 °C 1019.2 hPa SW 3.2 km/h 9.7 km/h 94 % 0.0 mm
21:47 16.8 °C 15.8 °C 1019.5 hPa SW 6.4 km/h 9.7 km/h 94 % 0.0 mm
21:57 16.8 °C 15.8 °C 1019.5 hPa SSW 6.4 km/h 9.7 km/h 94 % 0.0 mm
22:02 16.7 °C 15.7 °C 1019.5 hPa SSW 3.2 km/h 9.7 km/h 94 % 0.0 mm
22:07 16.7 °C 15.7 °C 1019.5 hPa SW 9.7 km/h 9.7 km/h 94 % 0.0 mm
22:12 16.8 °C 15.8 °C 1019.5 hPa SSW 3.2 km/h 11.3 km/h 94 % 0.0 mm
22:17 16.9 °C 15.9 °C 1019.5 hPa WSW 4.8 km/h 14.5 km/h 94 % 0.0 mm
22:22 16.9 °C 15.9 °C 1019.5 hPa WSW 4.8 km/h 14.5 km/h 94 % 0.0 mm
22:32 16.9 °C 15.9 °C 1019.5 hPa WSW 4.8 km/h 14.5 km/h 94 % 0.0 mm
22:42 16.9 °C 15.9 °C 1019.5 hPa SW 8.0 km/h 16.1 km/h 94 % 0.0 mm
22:52 16.8 °C 15.8 °C 1019.5 hPa SW 8.0 km/h 14.5 km/h 94 % 0.0 mm
23:02 16.8 °C 15.8 °C 1019.9 hPa SSW 6.4 km/h 16.1 km/h 94 % 0.0 mm
23:12 16.7 °C 15.7 °C 1019.9 hPa SW 4.8 km/h 14.5 km/h 94 % 0.0 mm
23:17 16.6 °C 15.6 °C 1019.9 hPa SSW 3.2 km/h 12.9 km/h 94 % 0.0 mm
23:22 16.6 °C 15.6 °C 1019.9 hPa SW 6.4 km/h 12.9 km/h 94 % 0.0 mm
23:32 16.5 °C 15.5 °C 1019.9 hPa SW 4.8 km/h 11.3 km/h 94 % 0.0 mm
23:42 16.4 °C 15.6 °C 1020.2 hPa SW 8.0 km/h 11.3 km/h 95 % 0.0 mm
23:52 16.4 °C 15.6 °C 1020.2 hPa SW 4.8 km/h 11.3 km/h 95 % 0.0 mm
23:57 16.3 °C 15.5 °C 1020.2 hPa WSW 6.4 km/h 14.5 km/h 95 % 0.0 mm
Meteo18
Compliments of Weather Underground - 4 mb

Script developed by  Jim McMurry - jmcmurry@mwt.net Adapted for the template by  Wim van der Kuil - Leuven-Template.eu

You find our weather info also at:

European Weather Network

Weather Underground

Equipment we use:

Weather-station
Davis Vue

Weather-program
Meteohub

Weather-server
Raspberry PI 2 B+

Provider
1 and 1

Davis Vue

Meteohub

Raspberry PI 2 B+

1 and 1